Time;durP1;ratioP1;P1;durP2;ratioP2;P2;SDS_P1;SDS_P2;PMS_P1;PMS_P2;Temp;Humidity;BMP_temperature;BMP_pressure;BME280_temperature;BME280_humidity;BME280_pressure;Samples;Min_cycle;Max_cycle;Signal;HPM_P1;HPM_P2
2022/07/22 00:00:46;;;;;;;;;22.75;16.50;;;;;22.50;57.62;101736.47;4997093;28;57329;-83
2022/07/22 00:03:12;;;;;;;;;17.25;15.00;;;;;22.47;57.06;101727.84;5014657;28;56024;-82
2022/07/22 00:05:37;;;;;;;;;18.25;16.50;;;;;22.44;57.41;101726.25;5014588;28;65438;-82
2022/07/22 00:08:03;;;;;;;;;16.50;15.00;;;;;22.38;57.56;101718.69;4996134;28;68983;-83
2022/07/22 00:10:28;;;;;;;;;15.25;14.75;;;;;22.39;57.68;101725.69;5015293;28;45370;-83
2022/07/22 00:12:53;;;;;;;;;17.00;15.00;;;;;22.37;57.71;101735.56;5014214;28;64478;-83
2022/07/22 00:15:19;;;;;;;;;22.75;17.25;;;;;22.33;57.69;101734.91;5014355;28;63060;-83
2022/07/22 00:17:44;;;;;;;;;20.00;15.25;;;;;22.28;57.63;101729.03;4996626;28;68326;-82
2022/07/22 00:20:10;;;;;;;;;17.75;16.00;;;;;22.25;57.43;101734.50;5014239;28;65439;-83
2022/07/22 00:22:35;;;;;;;;;17.50;15.25;;;;;22.23;57.78;101741.69;5014620;28;45307;-83
2022/07/22 00:25:00;;;;;;;;;15.75;13.75;;;;;22.20;57.88;101726.81;5017250;28;45582;-83
2022/07/22 00:27:26;;;;;;;;;16.50;14.00;;;;;22.18;58.03;101726.06;4999615;28;73540;-82
2022/07/22 00:29:51;;;;;;;;;19.75;15.75;;;;;22.14;58.35;101719.25;5017732;28;67889;-83
2022/07/22 00:32:16;;;;;;;;;16.25;15.00;;;;;22.11;57.98;101723.91;5017549;28;62609;-83
2022/07/22 00:34:42;;;;;;;;;19.50;15.25;;;;;22.05;57.85;101711.88;5000721;28;45329;-83
2022/07/22 00:37:07;;;;;;;;;20.50;16.00;;;;;22.07;58.05;101719.75;4999408;28;67529;-83
2022/07/22 00:39:33;;;;;;;;;14.50;14.50;;;;;21.98;58.31;101703.44;5018240;28;45242;-83
2022/07/22 00:41:59;;;;;;;;;18.75;15.75;;;;;21.98;57.98;101702.59;5018270;28;45478;-83
2022/07/22 00:44:24;;;;;;;;;16.00;14.75;;;;;21.91;58.04;101696.81;5000488;28;45530;-82
2022/07/22 00:46:49;;;;;;;;;17.00;17.00;;;;;21.89;58.64;101698.69;4999516;28;68774;-82
2022/07/22 00:49:15;;;;;;;;;17.75;15.75;;;;;21.88;58.73;101699.66;5017147;28;68795;-82
2022/07/22 00:51:40;;;;;;;;;18.25;16.25;;;;;21.85;58.39;101699.84;4999106;28;66054;-82
2022/07/22 00:54:06;;;;;;;;;19.25;17.75;;;;;21.81;58.34;101691.22;5000216;28;45458;-82
2022/07/22 00:56:32;;;;;;;;;23.50;19.25;;;;;21.77;58.50;101689.72;5000062;28;45514;-82
2022/07/22 00:59:01;;;;;;;;;16.75;16.75;;;;;21.76;58.88;101693.28;5017913;28;45512;-82
2022/07/22 01:01:27;;;;;;;;;16.75;16.75;;;;;21.73;58.68;101685.56;5017972;28;45359;-82
2022/07/22 01:03:53;;;;;;;;;21.00;17.50;;;;;21.69;58.87;101684.00;5017104;28;70479;-82
2022/07/22 01:06:18;;;;;;;;;23.75;20.75;;;;;21.70;58.45;101684.88;4999643;28;45412;-81
2022/07/22 01:08:43;;;;;;;;;21.75;18.75;;;;;21.69;58.93;101678.72;4999785;28;45462;-82
2022/07/22 01:11:12;;;;;;;;;23.75;19.75;;;;;21.70;58.74;101687.53;5000262;28;45360;-81
2022/07/22 01:13:38;;;;;;;;;20.75;17.75;;;;;21.68;58.60;101692.09;4999766;28;45666;-82
2022/07/22 01:16:05;;;;;;;;;20.00;18.50;;;;;21.60;59.10;101677.50;4991592;28;47707;-82
2022/07/22 01:18:30;;;;;;;;;16.50;15.50;;;;;21.58;59.29;101679.38;4998579;28;45900;-82
2022/07/22 01:20:55;;;;;;;;;20.25;16.50;;;;;21.57;58.85;101690.91;5017667;28;45308;-82
2022/07/22 01:23:21;;;;;;;;;20.25;17.00;;;;;21.50;59.05;101680.78;5017130;28;45563;-82
2022/07/22 01:25:46;;;;;;;;;24.50;20.75;;;;;21.47;59.20;101679.19;4999560;28;45361;-82
2022/07/22 01:28:12;;;;;;;;;20.00;18.75;;;;;21.43;59.12;101678.47;5016676;28;66322;-82
2022/07/22 01:30:37;;;;;;;;;19.75;17.75;;;;;21.43;59.13;101688.19;4998939;28;69269;-82
2022/07/22 01:33:02;;;;;;;;;22.75;17.75;;;;;21.39;59.64;101686.69;5016143;28;65207;-82
2022/07/22 01:35:28;;;;;;;;;17.25;16.00;;;;;21.37;59.32;101675.34;5016197;28;74005;-82
2022/07/22 01:37:53;;;;;;;;;19.50;13.75;;;;;21.34;59.27;101678.16;5016949;28;63922;-82
2022/07/22 01:40:18;;;;;;;;;19.50;12.75;;;;;21.33;58.95;101679.13;4999645;28;45419;-81
2022/07/22 01:42:44;;;;;;;;;18.75;15.25;;;;;21.29;58.91;101677.59;5016565;28;62961;-82
2022/07/22 01:45:10;;;;;;;;;14.25;14.00;;;;;21.26;59.01;101676.81;5016336;28;69409;-81
2022/07/22 01:47:35;;;;;;;;;17.75;14.00;;;;;21.25;58.92;101676.94;5016754;28;45412;-82
2022/07/22 01:50:00;;;;;;;;;16.50;14.50;;;;;21.19;59.25;101679.91;4999529;28;45575;-82
2022/07/22 01:52:26;;;;;;;;;16.50;13.75;;;;;21.14;59.05;101677.56;4999650;28;45634;-82
2022/07/22 01:54:51;;;;;;;;;13.25;10.50;;;;;21.13;59.24;101686.44;5016021;28;73320;-82
2022/07/22 01:57:16;;;;;;;;;15.25;14.00;;;;;21.10;59.47;101672.50;5016272;28;67789;-83
2022/07/22 01:59:42;;;;;;;;;16.00;14.00;;;;;21.06;59.59;101669.19;4998652;28;61336;-83
2022/07/22 02:02:07;;;;;;;;;11.25;10.75;;;;;21.04;59.65;101663.13;5016185;28;63577;-83
2022/07/22 02:04:32;;;;;;;;;15.50;13.75;;;;;21.01;59.46;101666.81;4998831;28;60253;-82
2022/07/22 02:06:57;;;;;;;;;14.75;12.50;;;;;20.98;59.43;101659.06;4999186;28;45471;-82
2022/07/22 02:09:23;;;;;;;;;15.75;12.75;;;;;20.98;59.78;101664.34;5016807;28;45386;-82
2022/07/22 02:11:48;;;;;;;;;15.00;14.25;;;;;20.96;59.88;101673.34;4998347;28;67061;-81
2022/07/22 02:14:14;;;;;;;;;14.25;13.00;;;;;20.93;60.02;101670.84;5016661;28;45379;-82
2022/07/22 02:16:39;;;;;;;;;14.25;11.50;;;;;20.94;60.27;101668.13;4981227;28;72045;-82
2022/07/22 02:19:04;;;;;;;;;13.00;11.25;;;;;20.94;59.70;101672.56;4998654;28;53300;-82
2022/07/22 02:21:30;;;;;;;;;18.00;13.00;;;;;20.93;59.72;101666.44;5016542;28;45366;-82
2022/07/22 02:23:55;;;;;;;;;14.75;12.75;;;;;20.95;60.30;101669.84;4998543;28;45338;-82
2022/07/22 02:26:20;;;;;;;;;14.25;12.25;;;;;20.97;60.08;101667.06;5015853;28;59190;-82
2022/07/22 02:28:46;;;;;;;;;17.50;15.75;;;;;20.95;59.81;101666.31;4998635;28;51844;-82
2022/07/22 02:31:11;;;;;;;;;15.00;14.00;;;;;20.95;59.76;101675.13;5016299;28;45345;-82
2022/07/22 02:33:37;;;;;;;;;13.75;12.75;;;;;20.92;59.38;101677.94;5016062;28;45424;-82
2022/07/22 02:36:02;;;;;;;;;14.25;11.50;;;;;20.90;59.89;101673.69;4998150;28;62830;-81
2022/07/22 02:38:28;;;;;;;;;11.50;11.50;;;;;20.87;59.98;101672.91;5016661;28;45426;-82
2022/07/22 02:40:55;;;;;;;;;13.75;12.50;;;;;20.83;59.85;101666.09;5016283;28;45525;-82
2022/07/22 02:43:20;;;;;;;;;15.00;11.75;;;;;20.84;59.81;101673.09;4994186;28;57853;-82
2022/07/22 02:45:45;;;;;;;;;13.75;11.00;;;;;20.82;59.67;101671.47;5005326;28;67170;-82
2022/07/22 02:48:10;;;;;;;;;19.25;15.00;;;;;20.80;60.18;101668.06;4996999;28;61701;-82
2022/07/22 02:50:37;;;;;;;;;20.00;10.25;;;;;20.80;59.95;101671.56;5014529;28;65540;-82
2022/07/22 02:53:03;;;;;;;;;11.25;11.25;;;;;20.77;59.77;101662.97;5015779;28;46466;-82
2022/07/22 02:55:28;;;;;;;;;11.50;9.75;;;;;20.77;60.11;101666.44;5016053;28;45456;-81
2022/07/22 02:57:53;;;;;;;;;13.00;12.25;;;;;20.73;60.32;101664.94;4997497;28;65785;-81
2022/07/22 03:00:19;;;;;;;;;17.75;13.25;;;;;20.73;60.09;101659.63;5015086;28;61727;-81
2022/07/22 03:02:44;;;;;;;;;14.25;12.00;;;;;20.67;60.22;101650.25;4998153;28;46052;-81
2022/07/22 03:05:09;;;;;;;;;14.75;12.00;;;;;20.67;60.29;101657.31;4997564;28;65954;-82
2022/07/22 03:07:35;;;;;;;;;14.00;10.25;;;;;20.69;60.49;101650.19;5016151;28;45328;-82
2022/07/22 03:10:00;;;;;;;;;15.00;12.25;;;;;20.69;59.99;101656.31;4997348;28;66380;-82
2022/07/22 03:12:26;;;;;;;;;15.00;13.00;;;;;20.62;60.55;101646.16;5015739;28;45383;-82
2022/07/22 03:14:51;;;;;;;;;11.25;10.75;;;;;20.65;60.17;101653.91;5014754;28;64905;-82
2022/07/22 03:17:16;;;;;;;;;11.00;11.00;;;;;20.59;60.12;101643.66;4997429;28;66256;-82
2022/07/22 03:19:42;;;;;;;;;12.75;10.75;;;;;20.58;60.22;101655.16;5015889;28;45382;-82
2022/07/22 03:22:07;;;;;;;;;17.50;11.00;;;;;20.54;60.18;101649.22;4996582;28;70298;-82
2022/07/22 03:24:33;;;;;;;;;16.00;11.25;;;;;20.53;60.12;101650.16;4997387;28;45993;-82
2022/07/22 03:26:58;;;;;;;;;13.25;12.75;;;;;20.47;60.54;101637.28;4998164;28;45475;-82
2022/07/22 03:29:23;;;;;;;;;12.75;12.00;;;;;20.46;60.69;101652.28;5014470;28;65205;-83
2022/07/22 03:31:49;;;;;;;;;15.25;13.25;;;;;20.40;60.36;101642.03;4996971;28;67140;-82
2022/07/22 03:34:15;;;;;;;;;14.25;14.25;;;;;20.34;60.68;101647.69;5014530;28;67053;-82
2022/07/22 03:36:40;;;;;;;;;12.25;11.50;;;;;20.32;60.68;101660.16;4998098;28;45417;-82
2022/07/22 03:39:05;;;;;;;;;16.00;14.00;;;;;20.27;60.74;101657.75;5015609;28;45463;-82
2022/07/22 03:41:31;;;;;;;;;15.00;12.00;;;;;20.29;60.53;101662.94;5014400;28;74663;-81
2022/07/22 03:43:56;;;;;;;;;13.50;12.00;;;;;20.25;61.23;101654.31;5014990;28;45402;-82
2022/07/22 03:46:21;;;;;;;;;13.50;11.50;;;;;20.22;60.87;101656.28;4997844;28;45401;-82
2022/07/22 03:48:47;;;;;;;;;15.00;11.75;;;;;20.21;60.65;101657.25;5014514;28;66651;-83
2022/07/22 03:51:12;;;;;;;;;16.75;11.50;;;;;20.18;61.15;101658.25;4996871;28;70147;-83
2022/07/22 03:53:37;;;;;;;;;11.00;10.25;;;;;20.19;60.52;101657.31;5014346;28;66544;-83
2022/07/22 03:56:03;;;;;;;;;13.00;12.00;;;;;20.13;60.78;101649.69;4997840;28;45265;-82
2022/07/22 03:58:29;;;;;;;;;14.75;11.75;;;;;20.07;60.97;101652.69;5015464;28;45589;-82
2022/07/22 04:00:54;;;;;;;;;15.00;12.75;;;;;20.05;61.01;101660.69;5018161;28;61154;-82
2022/07/22 04:03:21;;;;;;;;;13.00;12.00;;;;;20.02;61.53;101657.38;5001027;28;45258;-82
2022/07/22 04:05:46;;;;;;;;;11.50;11.00;;;;;20.04;60.93;101658.13;5001089;28;45434;-82
2022/07/22 04:08:12;;;;;;;;;13.50;10.75;;;;;20.04;61.18;101653.72;5018102;28;64795;-82
2022/07/22 04:10:38;;;;;;;;;11.75;11.75;;;;;20.08;61.43;101657.06;5000996;28;45784;-81
2022/07/22 04:13:04;;;;;;;;;11.00;10.00;;;;;20.09;61.09;101656.94;5018223;28;45438;-82
2022/07/22 04:15:29;;;;;;;;;12.75;11.75;;;;;20.05;61.31;101651.94;5000934;28;45297;-82
2022/07/22 04:17:55;;;;;;;;;11.00;11.00;;;;;20.08;61.25;101649.13;4984515;28;45374;-82
2022/07/22 04:20:20;;;;;;;;;12.00;10.75;;;;;20.02;60.89;101639.75;5000423;28;47568;-82
2022/07/22 04:22:45;;;;;;;;;10.25;10.25;;;;;20.05;61.15;101646.63;5018260;28;45386;-83
2022/07/22 04:25:11;;;;;;;;;15.00;11.00;;;;;20.02;61.22;101638.88;5000364;28;48411;-81
2022/07/22 04:27:36;;;;;;;;;15.75;9.00;;;;;20.01;61.00;101640.66;5017131;28;67117;-82
2022/07/22 04:30:02;;;;;;;;;10.75;9.25;;;;;20.03;60.96;101641.44;5000503;28;47230;-82
2022/07/22 04:32:28;;;;;;;;;9.25;9.25;;;;;20.04;61.45;101639.63;5000511;28;45336;-82
2022/07/22 04:34:53;;;;;;;;;11.75;10.50;;;;;20.04;61.24;101644.91;5017460;28;63342;-82
2022/07/22 04:37:18;;;;;;;;;10.50;10.50;;;;;20.07;60.78;101644.75;5017495;28;68959;-82
2022/07/22 04:39:44;;;;;;;;;14.00;8.75;;;;;20.05;60.89;101642.19;4983631;28;47896;-82
2022/07/22 04:42:09;;;;;;;;;14.75;12.50;;;;;20.06;60.93;101640.44;4999299;28;71174;-82
2022/07/22 04:44:34;;;;;;;;;8.75;8.00;;;;;20.06;61.24;101640.44;5017482;28;63703;-81
2022/07/22 04:47:00;;;;;;;;;14.75;12.25;;;;;19.99;60.89;101625.84;5000421;28;45455;-82
2022/07/22 04:49:25;;;;;;;;;12.75;11.75;;;;;19.99;61.08;101631.97;4999338;28;74190;-81
2022/07/22 04:51:51;;;;;;;;;13.00;11.75;;;;;20.01;60.95;101634.53;5018177;28;45846;-81
2022/07/22 04:54:16;;;;;;;;;15.75;11.75;;;;;19.99;61.33;101628.50;5000284;28;45433;-82
2022/07/22 04:56:42;;;;;;;;;13.25;12.00;;;;;20.00;60.93;101624.88;4999953;28;45535;-82
2022/07/22 04:59:07;;;;;;;;;13.25;11.50;;;;;19.99;61.07;101626.69;4983730;28;47090;-82
2022/07/22 05:01:32;;;;;;;;;17.75;14.25;;;;;19.99;61.08;101625.84;5017062;28;70403;-82
2022/07/22 05:03:58;;;;;;;;;13.50;11.50;;;;;19.98;61.23;101621.47;5017593;28;50358;-81
2022/07/22 05:06:24;;;;;;;;;14.75;11.00;;;;;20.00;61.60;101619.59;5016858;28;70832;-81
2022/07/22 05:08:49;;;;;;;;;17.00;12.25;;;;;19.96;61.34;101616.28;5017534;28;46094;-81
2022/07/22 05:11:14;;;;;;;;;14.50;11.00;;;;;19.98;61.21;101621.47;5016217;28;68676;-81
2022/07/22 05:13:40;;;;;;;;;11.25;11.25;;;;;19.97;61.03;101614.50;5017628;28;45415;-81
2022/07/22 05:16:06;;;;;;;;;11.75;9.75;;;;;20.04;61.15;101622.00;4999409;28;61932;-82
2022/07/22 05:18:32;;;;;;;;;12.25;11.75;;;;;20.10;61.55;101612.91;5017512;28;46251;-82
2022/07/22 05:20:57;;;;;;;;;18.50;12.00;;;;;20.15;61.45;101620.56;5017816;28;45523;-81
2022/07/22 05:23:23;;;;;;;;;15.50;13.00;;;;;20.17;61.16;101616.03;4999601;28;45672;-82
2022/07/22 05:25:48;;;;;;;;;15.00;13.50;;;;;20.24;61.24;101614.75;5016411;28;65741;-82
2022/07/22 05:28:14;;;;;;;;;17.50;14.75;;;;;20.28;60.73;101619.81;4999592;28;48003;-82
2022/07/22 05:30:39;;;;;;;;;15.50;12.00;;;;;20.33;60.35;101608.09;5016674;28;64916;-81
2022/07/22 05:33:04;;;;;;;;;9.50;9.50;;;;;20.36;60.28;101614.09;4983042;28;47972;-82
2022/07/22 05:35:30;;;;;;;;;13.25;11.75;;;;;20.36;61.00;101622.00;5016926;28;56862;-81
2022/07/22 05:37:56;;;;;;;;;13.75;11.25;;;;;20.38;60.34;101611.34;5016383;28;73271;-81
2022/07/22 05:40:21;;;;;;;;;14.25;11.00;;;;;20.42;60.39;101619.00;4999316;28;45414;-81
2022/07/22 05:42:46;;;;;;;;;16.00;14.00;;;;;20.42;60.26;101613.72;5017264;28;45712;-81
2022/07/22 05:45:12;;;;;;;;;17.75;14.75;;;;;20.43;60.72;101620.72;4982034;28;67500;-81
2022/07/22 05:47:37;;;;;;;;;13.75;11.25;;;;;20.45;60.35;101615.38;5017023;28;46176;-81
2022/07/22 05:50:03;;;;;;;;;18.00;13.00;;;;;20.47;60.18;101618.78;4999506;28;45426;-81
2022/07/22 05:52:28;;;;;;;;;12.75;12.00;;;;;20.49;59.99;101616.88;5017109;28;45326;-81
2022/07/22 05:54:54;;;;;;;;;12.00;10.75;;;;;20.52;60.61;101610.56;4999061;28;45345;-81
2022/07/22 05:57:19;;;;;;;;;13.25;13.25;;;;;20.52;59.96;101605.28;4999238;28;46412;-81
2022/07/22 05:59:44;;;;;;;;;18.00;12.25;;;;;20.52;60.43;101605.28;5016296;28;60934;-81
2022/07/22 06:02:10;;;;;;;;;15.25;12.00;;;;;20.53;60.25;101599.06;4998353;28;68016;-82
2022/07/22 06:04:35;;;;;;;;;13.00;11.50;;;;;20.55;60.04;101592.72;5016143;28;64109;-81
2022/07/22 06:07:01;;;;;;;;;16.25;12.00;;;;;20.57;60.17;101593.47;4999128;28;45373;-81
2022/07/22 06:09:26;;;;;;;;;14.25;12.00;;;;;20.62;60.04;101593.28;5016264;28;45341;-81
2022/07/22 06:11:51;;;;;;;;;17.50;12.00;;;;;20.68;60.15;101611.41;4998505;28;56868;-82
2022/07/22 06:14:17;;;;;;;;;13.75;13.50;;;;;20.73;59.94;101614.66;4998497;28;53667;-82
2022/07/22 06:16:42;;;;;;;;;16.00;14.75;;;;;20.76;60.39;101614.47;5016610;28;46365;-81
2022/07/22 06:19:07;;;;;;;;;13.50;10.50;;;;;20.75;59.47;101601.34;5015625;28;72886;-81
2022/07/22 06:21:33;;;;;;;;;19.75;12.00;;;;;20.83;59.67;101607.03;4996944;28;68112;-82
2022/07/22 06:23:58;;;;;;;;;12.25;11.00;;;;;20.87;59.49;101611.19;5015983;28;45470;-82
2022/07/22 06:26:23;;;;;;;;;17.50;14.00;;;;;20.94;59.73;101601.13;4981249;28;75528;-82
2022/07/22 06:28:49;;;;;;;;;20.00;13.75;;;;;21.05;59.30;101599.53;5015515;28;68879;-82
2022/07/22 06:31:14;;;;;;;;;18.25;11.25;;;;;21.19;59.58;101605.78;4998812;28;45301;-82
2022/07/22 06:33:39;;;;;;;;;13.50;13.00;;;;;21.26;59.30;101607.97;5016249;28;45301;-81
2022/07/22 06:36:05;;;;;;;;;19.25;14.00;;;;;21.35;58.95;101605.72;4998201;28;52936;-82
2022/07/22 06:38:31;;;;;;;;;20.50;14.75;;;;;21.42;58.88;101613.19;5016064;28;45410;-81
2022/07/22 06:40:56;;;;;;;;;12.00;11.75;;;;;21.48;58.50;101611.16;4998617;28;45445;-82
2022/07/22 06:43:22;;;;;;;;;15.25;13.00;;;;;21.49;58.97;101608.44;5016334;28;45347;-82
2022/07/22 06:45:47;;;;;;;;;16.25;13.75;;;;;21.62;58.47;101605.88;4997864;28;62656;-82
2022/07/22 06:48:13;;;;;;;;;15.50;13.50;;;;;21.70;58.71;101605.41;5015719;28;57442;-81
2022/07/22 06:50:38;;;;;;;;;15.00;15.00;;;;;21.81;58.35;101617.03;5016427;28;45816;-82
2022/07/22 06:53:03;;;;;;;;;15.75;13.50;;;;;21.93;58.72;101627.81;4997390;28;64233;-81
2022/07/22 06:55:29;;;;;;;;;18.50;15.00;;;;;22.04;57.42;101641.22;5014980;28;74391;-82
2022/07/22 06:57:54;;;;;;;;;16.50;15.00;;;;;22.10;57.08;101632.91;5015362;28;64316;-82
2022/07/22 07:00:20;;;;;;;;;18.25;16.00;;;;;22.16;57.36;101631.66;5016187;28;45510;-82
2022/07/22 07:02:45;;;;;;;;;16.50;13.50;;;;;22.16;57.07;101627.19;5016163;28;45536;-82
2022/07/22 07:05:11;;;;;;;;;15.25;13.75;;;;;22.22;56.95;101633.91;4998152;28;47878;-82
2022/07/22 07:07:36;;;;;;;;;14.50;14.50;;;;;22.28;56.91;101630.91;4997868;28;45458;-82
2022/07/22 07:10:02;;;;;;;;;19.25;14.00;;;;;22.34;56.88;101614.59;4998409;28;45442;-81
2022/07/22 07:12:27;;;;;;;;;18.00;14.75;;;;;22.44;56.52;101612.19;4998113;28;45445;-81
2022/07/22 07:14:53;;;;;;;;;15.25;13.00;;;;;22.52;56.46;101612.53;5015654;28;45280;-82
2022/07/22 07:17:18;;;;;;;;;17.50;14.00;;;;;22.61;56.62;101595.16;4981650;28;45419;-82
2022/07/22 07:19:43;;;;;;;;;15.25;12.50;;;;;22.74;55.90;101597.84;5015459;28;49963;-82
2022/07/22 07:22:09;;;;;;;;;22.75;15.75;;;;;22.78;55.81;101581.63;5014525;28;58294;-81
2022/07/22 07:24:34;;;;;;;;;19.25;15.50;;;;;22.84;55.54;101577.69;5015478;28;45228;-82
2022/07/22 07:26:59;;;;;;;;;15.75;12.50;;;;;22.93;55.48;101582.38;4996894;28;72998;-82
2022/07/22 07:29:25;;;;;;;;;18.50;14.75;;;;;23.00;55.54;101582.81;5015222;28;53425;-81
2022/07/22 07:31:50;;;;;;;;;13.75;13.75;;;;;23.15;54.84;101594.25;5010725;28;65053;-79
2022/07/22 07:34:15;;;;;;;;;16.75;15.25;;;;;23.20;55.21;101573.53;5036300;28;71796;-78
2022/07/22 07:36:41;;;;;;;;;18.25;15.75;;;;;23.34;55.17;101588.50;5040518;28;71620;-79
2022/07/22 07:39:06;;;;;;;;;17.25;14.00;;;;;23.41;54.72;101591.59;5041119;28;65117;-80
2022/07/22 07:41:31;;;;;;;;;15.00;15.00;;;;;23.46;54.44;101594.75;5023072;28;66943;-80
2022/07/22 07:43:57;;;;;;;;;18.50;12.50;;;;;23.52;54.74;101597.84;5022959;28;45366;-79
2022/07/22 07:46:22;;;;;;;;;18.75;15.00;;;;;23.61;54.41;101591.03;5041653;28;45362;-81
2022/07/22 07:48:48;;;;;;;;;13.00;13.00;;;;;23.69;53.93;101599.31;5023945;28;45352;-80
2022/07/22 07:51:14;;;;;;;;;16.75;15.25;;;;;23.81;53.83;101608.28;5040456;28;45662;-80
2022/07/22 07:53:39;;;;;;;;;14.25;13.50;;;;;23.84;53.86;101599.22;5024442;28;46186;-80
2022/07/22 07:56:05;;;;;;;;;18.75;14.75;;;;;23.95;53.65;101615.25;5032086;28;56940;-80
2022/07/22 07:58:30;;;;;;;;;14.50;12.75;;;;;24.02;53.22;101616.50;5016234;28;45510;-78
2022/07/22 08:00:55;;;;;;;;;16.50;12.00;;;;;24.13;53.02;101615.75;4996207;28;45553;-79
2022/07/22 08:03:21;;;;;;;;;17.00;14.75;;;;;24.21;53.76;101615.19;4993454;28;46955;-79
2022/07/22 08:05:46;;;;;;;;;21.75;14.25;;;;;24.32;53.07;101613.41;5018030;28;45473;-79
2022/07/22 08:08:12;;;;;;;;;16.50;12.75;;;;;24.39;53.27;101602.34;5021101;28;69130;-79
2022/07/22 08:10:37;;;;;;;;;19.75;15.75;;;;;24.47;52.33;101608.78;5002389;28;45501;-79
2022/07/22 08:13:03;;;;;;;;;15.25;14.00;;;;;24.51;52.59;101596.94;5014606;28;69989;-79
2022/07/22 08:15:30;;;;;;;;;15.00;13.25;;;;;24.56;52.28;101596.63;5005446;28;45354;-79
2022/07/22 08:17:56;;;;;;;;;15.25;12.75;;;;;24.67;52.44;101602.00;4991864;28;45537;-78
2022/07/22 08:20:23;;;;;;;;;18.25;15.00;;;;;24.68;52.21;101593.06;5019667;28;45547;-79
2022/07/22 08:22:49;;;;;;;;;16.50;15.25;;;;;24.70;52.12;101592.94;5013929;28;45777;-78
2022/07/22 08:25:15;;;;;;;;;13.50;12.25;;;;;24.75;52.06;101598.75;5006916;28;45425;-78
2022/07/22 08:27:40;;;;;;;;;22.75;17.25;;;;;24.76;52.21;101592.50;5021547;28;45354;-79
2022/07/22 08:30:06;;;;;;;;;14.00;12.50;;;;;24.78;51.97;101587.06;5012249;28;45467;-80
2022/07/22 08:32:33;;;;;;;;;15.75;15.50;;;;;24.83;52.24;101593.72;5009501;28;45491;-79
2022/07/22 08:34:58;;;;;;;;;25.00;19.25;;;;;24.86;51.64;101577.50;4986888;28;45631;-79
2022/07/22 08:37:24;;;;;;;;;16.75;15.25;;;;;24.90;51.47;101584.28;5015143;28;45351;-79
2022/07/22 08:39:49;;;;;;;;;16.75;15.75;;;;;24.98;51.05;101588.16;5017096;28;45447;-79
2022/07/22 08:42:15;;;;;;;;;18.50;14.75;;;;;25.05;51.11;101586.75;5020795;28;45917;-79
2022/07/22 08:44:40;;;;;;;;;18.25;14.50;;;;;25.13;50.83;101576.34;5010679;28;45473;-79
2022/07/22 08:47:06;;;;;;;;;19.25;11.00;;;;;25.22;50.81;101569.44;4998311;28;45574;-79
2022/07/22 08:49:31;;;;;;;;;14.50;13.75;;;;;25.29;50.56;101560.88;5001107;28;65941;-79
2022/07/22 08:51:56;;;;;;;;;15.50;14.50;;;;;25.46;50.57;101550.72;4979823;28;46318;-79
2022/07/22 08:54:22;;;;;;;;;17.25;13.50;;;;;25.54;50.14;101542.97;4999745;28;66930;-79
2022/07/22 08:56:48;;;;;;;;;16.50;14.50;;;;;25.66;50.12;101538.47;5003815;28;45367;-78
2022/07/22 08:59:14;;;;;;;;;15.00;14.00;;;;;25.74;50.09;101519.19;4986960;28;45337;-79
2022/07/22 09:02:06;;;;;;;;;15.50;14.75;;;;;25.86;49.93;101503.03;5015030;28;46922;-79
2022/07/22 09:04:32;;;;;;;;;15.00;13.50;;;;;25.87;49.61;101474.53;4996987;28;46147;-79
2022/07/22 09:06:58;;;;;;;;;13.75;12.75;;;;;25.99;49.99;101464.72;5002688;28;45508;-79
2022/07/22 09:09:34;;;;;;;;;14.50;14.00;;;;;26.07;50.25;101483.59;5002834;28;45537;-79
2022/07/22 09:12:07;;;;;;;;;14.75;12.75;;;;;26.12;49.80;101500.06;4987885;28;46995;-79
2022/07/22 09:14:51;;;;;;;;;17.25;14.00;;;;;26.13;49.54;101503.59;5016854;28;45778;-79
2022/07/22 09:17:27;;;;;;;;;18.00;15.00;;;;;26.21;49.14;101539.34;4986170;28;48113;-79
2022/07/22 09:19:57;;;;;;;;;16.50;13.25;;;;;26.29;48.94;101544.03;4997490;28;45471;-79
2022/07/22 09:22:43;;;;;;;;;15.75;14.75;;;;;26.43;49.26;101567.75;4996530;28;45765;-79
2022/07/22 09:25:29;;;;;;;;;14.25;13.75;;;;;26.56;49.19;101574.72;4994134;28;45510;-79
2022/07/22 09:28:10;;;;;;;;;15.75;14.25;;;;;26.61;48.24;101570.72;4998388;28;45518;-79
2022/07/22 09:30:50;;;;;;;;;16.25;15.00;;;;;26.67;48.36;101558.72;5012765;28;45440;-79
2022/07/22 09:33:16;;;;;;;;;13.75;13.00;;;;;26.78;48.03;101576.47;5016568;28;46532;-79
2022/07/22 09:35:42;;;;;;;;;20.50;17.00;;;;;26.83;48.65;101575.09;5001209;28;45720;-79
2022/07/22 09:38:10;;;;;;;;;16.75;15.50;;;;;26.82;48.32;101562.75;4997230;28;45312;-79
2022/07/22 09:40:46;;;;;;;;;18.00;14.00;;;;;26.89;47.97;101546.19;5013636;28;45566;-79
2022/07/22 09:43:14;;;;;;;;;19.00;13.75;;;;;26.97;48.02;101538.38;4999095;28;45514;-79
2022/07/22 09:45:59;;;;;;;;;16.25;14.50;;;;;27.07;48.31;101539.25;4998985;28;45393;-79
2022/07/22 09:48:25;;;;;;;;;19.25;12.75;;;;;27.14;48.06;101536.91;4997894;28;45371;-81
2022/07/22 09:50:52;;;;;;;;;18.00;15.00;;;;;27.24;47.52;101549.31;5005558;28;45498;-81
2022/07/22 09:53:20;;;;;;;;;17.50;15.75;;;;;27.19;46.94;101545.34;5000830;28;46630;-80
2022/07/22 09:55:45;;;;;;;;;15.25;14.25;;;;;27.18;46.83;101565.06;5001357;28;45919;-82
2022/07/22 09:58:12;;;;;;;;;17.00;14.50;;;;;27.15;47.03;101554.63;4992538;28;45389;-82
2022/07/22 10:00:38;;;;;;;;;16.75;14.25;;;;;27.14;46.91;101560.97;5015883;28;45335;-82
2022/07/22 10:03:06;;;;;;;;;18.75;15.25;;;;;27.12;46.93;101555.75;4978613;28;47213;-82
2022/07/22 10:05:35;;;;;;;;;24.00;16.50;;;;;27.08;46.99;101550.78;5011812;28;45241;-81
2022/07/22 10:08:02;;;;;;;;;19.25;15.50;;;;;27.01;46.90;101548.66;5004393;28;45735;-82
2022/07/22 10:10:28;;;;;;;;;17.00;15.25;;;;;26.91;47.07;101547.72;5016239;28;45450;-82
2022/07/22 10:12:55;;;;;;;;;18.50;16.00;;;;;26.82;47.43;101552.06;5000095;28;46525;-82
2022/07/22 10:15:22;;;;;;;;;17.00;15.75;;;;;26.71;47.41;101548.59;4996014;28;45663;-81
2022/07/22 10:17:50;;;;;;;;;16.75;14.50;;;;;26.55;47.23;101549.84;4996789;28;45249;-80
2022/07/22 10:20:23;;;;;;;;;16.50;16.25;;;;;26.40;47.92;101538.66;4997689;28;45355;-81
2022/07/22 10:22:51;;;;;;;;;22.25;16.25;;;;;26.19;47.90;101522.59;4950830;28;46640;-80
2022/07/22 10:25:18;;;;;;;;;14.25;14.25;;;;;26.03;48.21;101523.00;4976443;28;45379;-80
2022/07/22 10:27:58;;;;;;;;;18.00;16.25;;;;;25.94;49.13;101536.25;4976633;28;45390;-80
2022/07/22 10:30:31;;;;;;;;;20.00;17.00;;;;;25.80;48.96;101532.03;4978736;28;45376;-82
2022/07/22 10:33:07;;;;;;;;;25.75;21.25;;;;;25.63;49.59;101520.91;4960190;28;46272;-81
2022/07/22 10:35:34;;;;;;;;;19.00;17.00;;;;;25.53;50.93;101524.44;4976922;28;45369;-81
2022/07/22 10:38:02;;;;;;;;;22.00;18.25;;;;;25.41;50.63;101523.59;4965435;28;45576;-81
2022/07/22 10:40:30;;;;;;;;;19.00;16.25;;;;;25.33;50.61;101521.53;4988526;28;45506;-81
2022/07/22 10:43:11;;;;;;;;;23.00;20.25;;;;;25.24;51.37;101496.47;4958655;28;45357;-81
2022/07/22 10:45:40;;;;;;;;;21.00;18.75;;;;;25.14;52.91;101479.47;4973011;28;45998;-81
2022/07/22 10:48:11;;;;;;;;;21.25;20.00;;;;;25.00;53.43;101458.41;4968944;28;45451;-82
2022/07/22 10:50:37;;;;;;;;;23.00;19.25;;;;;24.94;54.20;101457.06;4969866;28;45612;-83
2022/07/22 10:53:12;;;;;;;;;26.25;20.25;;;;;24.88;55.13;101438.91;4976058;28;47127;-82
2022/07/22 10:55:58;;;;;;;;;22.75;21.75;;;;;24.82;55.33;101426.09;4975960;28;45991;-82
2022/07/22 10:58:33;;;;;;;;;22.50;19.25;;;;;24.79;55.45;101402.38;4961552;28;45349;-84
2022/07/22 11:01:01;;;;;;;;;23.50;19.00;;;;;24.77;56.01;101396.31;4982000;28;45446;-82
2022/07/22 11:03:29;;;;;;;;;19.75;16.00;;;;;24.79;56.19;101391.72;4977122;28;46201;-82
2022/07/22 11:05:55;;;;;;;;;24.00;20.75;;;;;24.85;56.68;101378.78;4976481;28;45531;-82